sensor_id;sensor_type;location;lat;lon;timestamp;P1;durP1;ratioP1;P2;durP2;ratioP2
47657;SDS011;33958;48.404;10.598;2022-07-12T00:02:21;5.55;;;3.08;;
47657;SDS011;33958;48.404;10.598;2022-07-12T00:04:47;6.72;;;2.70;;
47657;SDS011;33958;48.404;10.598;2022-07-12T00:07:14;4.35;;;2.30;;
47657;SDS011;33958;48.404;10.598;2022-07-12T00:09:41;6.13;;;2.75;;
47657;SDS011;33958;48.404;10.598;2022-07-12T00:12:08;5.65;;;2.80;;
47657;SDS011;33958;48.404;10.598;2022-07-12T00:14:36;6.10;;;2.97;;
47657;SDS011;33958;48.404;10.598;2022-07-12T00:17:02;5.30;;;2.88;;
47657;SDS011;33958;48.404;10.598;2022-07-12T00:19:30;6.30;;;3.35;;
47657;SDS011;33958;48.404;10.598;2022-07-12T00:21:58;7.38;;;4.05;;
47657;SDS011;33958;48.404;10.598;2022-07-12T00:24:25;5.70;;;3.13;;
47657;SDS011;33958;48.404;10.598;2022-07-12T00:26:51;6.57;;;3.20;;
47657;SDS011;33958;48.404;10.598;2022-07-12T00:29:18;5.68;;;2.55;;
47657;SDS011;33958;48.404;10.598;2022-07-12T00:31:45;8.30;;;3.25;;
47657;SDS011;33958;48.404;10.598;2022-07-12T00:34:12;6.75;;;3.13;;
47657;SDS011;33958;48.404;10.598;2022-07-12T00:36:39;5.68;;;3.20;;
47657;SDS011;33958;48.404;10.598;2022-07-12T00:39:06;6.25;;;3.65;;
47657;SDS011;33958;48.404;10.598;2022-07-12T00:41:33;5.70;;;3.05;;
47657;SDS011;33958;48.404;10.598;2022-07-12T00:44:00;7.05;;;3.67;;
47657;SDS011;33958;48.404;10.598;2022-07-12T00:46:26;6.53;;;3.17;;
47657;SDS011;33958;48.404;10.598;2022-07-12T00:48:53;5.47;;;2.90;;
47657;SDS011;33958;48.404;10.598;2022-07-12T00:51:20;6.03;;;3.00;;
47657;SDS011;33958;48.404;10.598;2022-07-12T00:53:48;5.40;;;2.83;;
47657;SDS011;33958;48.404;10.598;2022-07-12T00:56:16;6.53;;;3.47;;
47657;SDS011;33958;48.404;10.598;2022-07-12T00:58:44;6.82;;;3.30;;
47657;SDS011;33958;48.404;10.598;2022-07-12T01:01:11;7.13;;;3.70;;
47657;SDS011;33958;48.404;10.598;2022-07-12T01:03:38;5.22;;;2.88;;
47657;SDS011;33958;48.404;10.598;2022-07-12T01:06:06;5.15;;;2.92;;
47657;SDS011;33958;48.404;10.598;2022-07-12T01:08:34;6.75;;;3.17;;
47657;SDS011;33958;48.404;10.598;2022-07-12T01:11:01;5.85;;;3.17;;
47657;SDS011;33958;48.404;10.598;2022-07-12T01:13:29;5.95;;;3.05;;
47657;SDS011;33958;48.404;10.598;2022-07-12T01:15:56;6.80;;;3.03;;
47657;SDS011;33958;48.404;10.598;2022-07-12T01:18:23;6.30;;;3.08;;
47657;SDS011;33958;48.404;10.598;2022-07-12T01:20:52;4.70;;;2.63;;
47657;SDS011;33958;48.404;10.598;2022-07-12T01:23:20;5.70;;;2.90;;
47657;SDS011;33958;48.404;10.598;2022-07-12T01:25:48;5.93;;;3.10;;
47657;SDS011;33958;48.404;10.598;2022-07-12T01:28:15;6.07;;;3.20;;
47657;SDS011;33958;48.404;10.598;2022-07-12T01:30:43;5.55;;;3.03;;
47657;SDS011;33958;48.404;10.598;2022-07-12T01:33:10;6.07;;;3.42;;
47657;SDS011;33958;48.404;10.598;2022-07-12T01:35:37;6.50;;;3.63;;
47657;SDS011;33958;48.404;10.598;2022-07-12T01:38:04;5.50;;;3.13;;
47657;SDS011;33958;48.404;10.598;2022-07-12T01:40:31;6.32;;;3.42;;
47657;SDS011;33958;48.404;10.598;2022-07-12T01:42:58;7.07;;;3.30;;
47657;SDS011;33958;48.404;10.598;2022-07-12T01:45:25;6.38;;;3.38;;
47657;SDS011;33958;48.404;10.598;2022-07-12T01:47:52;6.32;;;3.25;;
47657;SDS011;33958;48.404;10.598;2022-07-12T01:50:19;9.60;;;3.65;;
47657;SDS011;33958;48.404;10.598;2022-07-12T01:52:45;5.00;;;2.75;;
47657;SDS011;33958;48.404;10.598;2022-07-12T01:55:13;5.75;;;3.10;;
47657;SDS011;33958;48.404;10.598;2022-07-12T01:57:42;6.65;;;3.40;;
47657;SDS011;33958;48.404;10.598;2022-07-12T02:00:10;5.70;;;3.03;;
47657;SDS011;33958;48.404;10.598;2022-07-12T02:02:38;5.70;;;2.95;;
47657;SDS011;33958;48.404;10.598;2022-07-12T02:05:06;5.20;;;3.00;;
47657;SDS011;33958;48.404;10.598;2022-07-12T02:07:33;5.75;;;2.85;;
47657;SDS011;33958;48.404;10.598;2022-07-12T02:10:01;6.75;;;3.45;;
47657;SDS011;33958;48.404;10.598;2022-07-12T02:12:27;6.75;;;3.38;;
47657;SDS011;33958;48.404;10.598;2022-07-12T02:14:55;7.13;;;2.95;;
47657;SDS011;33958;48.404;10.598;2022-07-12T02:17:21;4.95;;;2.97;;
47657;SDS011;33958;48.404;10.598;2022-07-12T02:19:48;6.35;;;2.95;;
47657;SDS011;33958;48.404;10.598;2022-07-12T02:22:15;5.63;;;2.90;;
47657;SDS011;33958;48.404;10.598;2022-07-12T02:24:42;6.93;;;3.22;;
47657;SDS011;33958;48.404;10.598;2022-07-12T02:27:09;8.55;;;3.20;;
47657;SDS011;33958;48.404;10.598;2022-07-12T02:29:36;6.07;;;3.03;;
47657;SDS011;33958;48.404;10.598;2022-07-12T02:32:02;6.30;;;3.28;;
47657;SDS011;33958;48.404;10.598;2022-07-12T02:34:30;6.25;;;3.20;;
47657;SDS011;33958;48.404;10.598;2022-07-12T02:36:57;6.93;;;3.53;;
47657;SDS011;33958;48.404;10.598;2022-07-12T02:39:23;7.20;;;3.70;;
47657;SDS011;33958;48.404;10.598;2022-07-12T02:41:51;11.38;;;3.35;;
47657;SDS011;33958;48.404;10.598;2022-07-12T02:44:17;5.63;;;3.10;;
47657;SDS011;33958;48.404;10.598;2022-07-12T02:46:44;6.78;;;2.83;;
47657;SDS011;33958;48.404;10.598;2022-07-12T02:49:11;6.10;;;3.08;;
47657;SDS011;33958;48.404;10.598;2022-07-12T02:51:39;6.40;;;3.15;;
47657;SDS011;33958;48.404;10.598;2022-07-12T02:54:06;10.10;;;3.42;;
47657;SDS011;33958;48.404;10.598;2022-07-12T02:56:33;5.72;;;3.13;;
47657;SDS011;33958;48.404;10.598;2022-07-12T02:59:00;6.57;;;3.38;;
47657;SDS011;33958;48.404;10.598;2022-07-12T03:01:27;6.85;;;3.28;;
47657;SDS011;33958;48.404;10.598;2022-07-12T03:03:53;5.88;;;3.05;;
47657;SDS011;33958;48.404;10.598;2022-07-12T03:06:20;6.05;;;3.05;;
47657;SDS011;33958;48.404;10.598;2022-07-12T03:08:47;6.38;;;3.47;;
47657;SDS011;33958;48.404;10.598;2022-07-12T03:11:14;6.97;;;3.67;;
47657;SDS011;33958;48.404;10.598;2022-07-12T03:13:41;5.93;;;3.20;;
47657;SDS011;33958;48.404;10.598;2022-07-12T03:16:07;6.30;;;3.20;;
47657;SDS011;33958;48.404;10.598;2022-07-12T03:18:35;6.38;;;3.50;;
47657;SDS011;33958;48.404;10.598;2022-07-12T03:21:01;7.93;;;3.85;;
47657;SDS011;33958;48.404;10.598;2022-07-12T03:23:29;7.55;;;3.95;;
47657;SDS011;33958;48.404;10.598;2022-07-12T03:25:55;5.90;;;3.13;;
47657;SDS011;33958;48.404;10.598;2022-07-12T03:28:23;6.40;;;3.08;;
47657;SDS011;33958;48.404;10.598;2022-07-12T03:30:51;6.13;;;3.28;;
47657;SDS011;33958;48.404;10.598;2022-07-12T03:33:18;6.50;;;3.35;;
47657;SDS011;33958;48.404;10.598;2022-07-12T03:35:45;6.57;;;3.50;;
47657;SDS011;33958;48.404;10.598;2022-07-12T03:38:12;7.78;;;3.20;;
47657;SDS011;33958;48.404;10.598;2022-07-12T03:40:39;6.60;;;3.42;;
47657;SDS011;33958;48.404;10.598;2022-07-12T03:43:06;8.43;;;3.00;;
47657;SDS011;33958;48.404;10.598;2022-07-12T03:45:33;6.75;;;3.47;;
47657;SDS011;33958;48.404;10.598;2022-07-12T03:48:01;5.75;;;3.00;;
47657;SDS011;33958;48.404;10.598;2022-07-12T03:50:27;5.85;;;3.30;;
47657;SDS011;33958;48.404;10.598;2022-07-12T03:52:55;7.97;;;3.72;;
47657;SDS011;33958;48.404;10.598;2022-07-12T03:55:22;6.05;;;3.22;;
47657;SDS011;33958;48.404;10.598;2022-07-12T03:57:49;7.88;;;3.67;;
47657;SDS011;33958;48.404;10.598;2022-07-12T04:00:16;7.05;;;3.75;;
47657;SDS011;33958;48.404;10.598;2022-07-12T04:02:43;6.82;;;3.63;;
47657;SDS011;33958;48.404;10.598;2022-07-12T04:05:10;5.82;;;3.47;;
47657;SDS011;33958;48.404;10.598;2022-07-12T04:07:38;5.35;;;3.28;;
47657;SDS011;33958;48.404;10.598;2022-07-12T04:10:06;5.85;;;3.40;;
47657;SDS011;33958;48.404;10.598;2022-07-12T04:12:33;6.22;;;3.30;;
47657;SDS011;33958;48.404;10.598;2022-07-12T04:15:00;7.15;;;3.22;;
47657;SDS011;33958;48.404;10.598;2022-07-12T04:17:28;6.93;;;3.17;;
47657;SDS011;33958;48.404;10.598;2022-07-12T04:19:55;11.25;;;3.35;;
47657;SDS011;33958;48.404;10.598;2022-07-12T04:22:22;7.40;;;3.55;;
47657;SDS011;33958;48.404;10.598;2022-07-12T04:24:50;8.10;;;3.70;;
47657;SDS011;33958;48.404;10.598;2022-07-12T04:27:16;7.30;;;3.83;;
47657;SDS011;33958;48.404;10.598;2022-07-12T04:29:43;6.88;;;3.75;;
47657;SDS011;33958;48.404;10.598;2022-07-12T04:32:10;7.55;;;3.78;;
47657;SDS011;33958;48.404;10.598;2022-07-12T04:34:37;6.38;;;3.47;;
47657;SDS011;33958;48.404;10.598;2022-07-12T04:37:04;9.30;;;3.55;;
47657;SDS011;33958;48.404;10.598;2022-07-12T04:39:31;8.77;;;3.75;;
47657;SDS011;33958;48.404;10.598;2022-07-12T04:41:58;7.75;;;3.50;;
47657;SDS011;33958;48.404;10.598;2022-07-12T04:44:25;9.48;;;4.03;;
47657;SDS011;33958;48.404;10.598;2022-07-12T04:46:52;8.48;;;4.28;;
47657;SDS011;33958;48.404;10.598;2022-07-12T04:49:19;7.18;;;3.75;;
47657;SDS011;33958;48.404;10.598;2022-07-12T04:51:46;8.02;;;3.67;;
47657;SDS011;33958;48.404;10.598;2022-07-12T04:54:13;7.03;;;3.65;;
47657;SDS011;33958;48.404;10.598;2022-07-12T04:56:39;6.68;;;3.65;;
47657;SDS011;33958;48.404;10.598;2022-07-12T04:59:06;7.05;;;3.70;;
47657;SDS011;33958;48.404;10.598;2022-07-12T05:01:33;6.28;;;3.42;;
47657;SDS011;33958;48.404;10.598;2022-07-12T05:04:00;7.70;;;3.85;;
47657;SDS011;33958;48.404;10.598;2022-07-12T05:06:27;6.78;;;3.38;;
47657;SDS011;33958;48.404;10.598;2022-07-12T05:08:54;7.13;;;3.50;;
47657;SDS011;33958;48.404;10.598;2022-07-12T05:11:21;6.47;;;3.45;;
47657;SDS011;33958;48.404;10.598;2022-07-12T05:13:48;7.75;;;4.25;;
47657;SDS011;33958;48.404;10.598;2022-07-12T05:16:15;6.82;;;3.65;;
47657;SDS011;33958;48.404;10.598;2022-07-12T05:18:42;7.22;;;3.53;;
47657;SDS011;33958;48.404;10.598;2022-07-12T05:21:10;7.53;;;3.75;;
47657;SDS011;33958;48.404;10.598;2022-07-12T05:23:38;7.40;;;4.10;;
47657;SDS011;33958;48.404;10.598;2022-07-12T05:26:05;7.00;;;3.83;;
47657;SDS011;33958;48.404;10.598;2022-07-12T05:28:32;8.40;;;4.47;;
47657;SDS011;33958;48.404;10.598;2022-07-12T05:30:58;6.97;;;3.95;;
47657;SDS011;33958;48.404;10.598;2022-07-12T05:33:25;7.30;;;3.85;;
47657;SDS011;33958;48.404;10.598;2022-07-12T05:35:52;7.03;;;3.58;;
47657;SDS011;33958;48.404;10.598;2022-07-12T05:38:19;7.47;;;3.97;;
47657;SDS011;33958;48.404;10.598;2022-07-12T05:40:46;10.25;;;4.07;;
47657;SDS011;33958;48.404;10.598;2022-07-12T05:43:14;7.13;;;3.92;;
47657;SDS011;33958;48.404;10.598;2022-07-12T05:45:42;7.55;;;4.20;;
47657;SDS011;33958;48.404;10.598;2022-07-12T05:48:09;8.27;;;4.38;;
47657;SDS011;33958;48.404;10.598;2022-07-12T05:50:36;8.23;;;4.35;;
47657;SDS011;33958;48.404;10.598;2022-07-12T05:53:02;6.68;;;4.25;;
47657;SDS011;33958;48.404;10.598;2022-07-12T05:55:51;8.27;;;4.07;;
47657;SDS011;33958;48.404;10.598;2022-07-12T05:58:20;8.40;;;4.07;;
47657;SDS011;33958;48.404;10.598;2022-07-12T06:00:47;8.85;;;4.40;;
47657;SDS011;33958;48.404;10.598;2022-07-12T06:03:15;7.25;;;4.10;;
47657;SDS011;33958;48.404;10.598;2022-07-12T06:05:43;7.18;;;3.80;;
47657;SDS011;33958;48.404;10.598;2022-07-12T06:08:09;7.22;;;4.30;;
47657;SDS011;33958;48.404;10.598;2022-07-12T06:10:37;7.43;;;4.32;;
47657;SDS011;33958;48.404;10.598;2022-07-12T06:13:03;7.32;;;4.18;;
47657;SDS011;33958;48.404;10.598;2022-07-12T06:15:31;7.60;;;4.50;;
47657;SDS011;33958;48.404;10.598;2022-07-12T06:18:00;7.85;;;4.32;;
47657;SDS011;33958;48.404;10.598;2022-07-12T06:20:28;7.38;;;4.40;;
47657;SDS011;33958;48.404;10.598;2022-07-12T06:22:55;8.02;;;3.65;;
47657;SDS011;33958;48.404;10.598;2022-07-12T06:25:23;6.85;;;3.70;;
47657;SDS011;33958;48.404;10.598;2022-07-12T06:28:10;7.03;;;3.85;;
47657;SDS011;33958;48.404;10.598;2022-07-12T06:30:38;8.20;;;3.65;;
47657;SDS011;33958;48.404;10.598;2022-07-12T06:33:05;5.47;;;2.80;;
47657;SDS011;33958;48.404;10.598;2022-07-12T06:35:32;5.18;;;2.83;;
47657;SDS011;33958;48.404;10.598;2022-07-12T06:38:00;5.43;;;2.65;;
47657;SDS011;33958;48.404;10.598;2022-07-12T06:40:27;4.30;;;2.53;;
47657;SDS011;33958;48.404;10.598;2022-07-12T06:42:54;4.20;;;2.58;;
47657;SDS011;33958;48.404;10.598;2022-07-12T06:45:22;4.95;;;2.38;;
47657;SDS011;33958;48.404;10.598;2022-07-12T06:47:49;5.82;;;2.58;;
47657;SDS011;33958;48.404;10.598;2022-07-12T06:50:16;4.10;;;2.05;;
47657;SDS011;33958;48.404;10.598;2022-07-12T06:52:43;8.45;;;2.88;;
47657;SDS011;33958;48.404;10.598;2022-07-12T06:55:10;4.38;;;2.20;;
47657;SDS011;33958;48.404;10.598;2022-07-12T06:57:37;4.40;;;2.33;;
47657;SDS011;33958;48.404;10.598;2022-07-12T07:00:04;8.70;;;2.90;;
47657;SDS011;33958;48.404;10.598;2022-07-12T07:02:32;4.05;;;2.00;;
47657;SDS011;33958;48.404;10.598;2022-07-12T07:04:59;3.38;;;1.98;;
47657;SDS011;33958;48.404;10.598;2022-07-12T07:07:26;3.85;;;2.20;;
47657;SDS011;33958;48.404;10.598;2022-07-12T07:09:53;4.05;;;2.05;;
47657;SDS011;33958;48.404;10.598;2022-07-12T07:12:20;2.28;;;1.30;;
47657;SDS011;33958;48.404;10.598;2022-07-12T07:14:48;2.80;;;1.38;;
47657;SDS011;33958;48.404;10.598;2022-07-12T07:17:18;4.55;;;1.77;;
47657;SDS011;33958;48.404;10.598;2022-07-12T07:19:46;2.88;;;1.48;;
47657;SDS011;33958;48.404;10.598;2022-07-12T07:22:13;2.95;;;1.60;;
47657;SDS011;33958;48.404;10.598;2022-07-12T07:24:40;2.35;;;1.30;;
47657;SDS011;33958;48.404;10.598;2022-07-12T07:27:07;2.95;;;1.02;;
47657;SDS011;33958;48.404;10.598;2022-07-12T07:29:35;1.73;;;1.00;;
47657;SDS011;33958;48.404;10.598;2022-07-12T07:32:20;1.95;;;1.10;;
47657;SDS011;33958;48.404;10.598;2022-07-12T07:34:48;2.45;;;1.10;;
47657;SDS011;33958;48.404;10.598;2022-07-12T07:37:14;2.53;;;1.20;;
47657;SDS011;33958;48.404;10.598;2022-07-12T07:39:42;2.30;;;0.80;;
47657;SDS011;33958;48.404;10.598;2022-07-12T07:42:09;1.02;;;0.70;;
47657;SDS011;33958;48.404;10.598;2022-07-12T07:44:36;0.75;;;0.60;;
47657;SDS011;33958;48.404;10.598;2022-07-12T07:47:23;1.58;;;0.95;;
47657;SDS011;33958;48.404;10.598;2022-07-12T07:49:50;1.20;;;0.90;;
47657;SDS011;33958;48.404;10.598;2022-07-12T07:52:20;0.45;;;0.45;;
47657;SDS011;33958;48.404;10.598;2022-07-12T07:54:48;1.58;;;0.75;;
47657;SDS011;33958;48.404;10.598;2022-07-12T07:57:15;0.88;;;0.60;;
47657;SDS011;33958;48.404;10.598;2022-07-12T07:59:42;0.98;;;0.50;;
47657;SDS011;33958;48.404;10.598;2022-07-12T08:02:10;1.15;;;0.73;;
47657;SDS011;33958;48.404;10.598;2022-07-12T08:04:39;0.30;;;0.30;;
47657;SDS011;33958;48.404;10.598;2022-07-12T08:07:06;0.20;;;0.20;;
47657;SDS011;33958;48.404;10.598;2022-07-12T08:09:33;1.27;;;0.38;;
47657;SDS011;33958;48.404;10.598;2022-07-12T08:12:00;0.65;;;0.55;;
47657;SDS011;33958;48.404;10.598;2022-07-12T08:14:27;0.93;;;0.50;;
47657;SDS011;33958;48.404;10.598;2022-07-12T08:16:55;0.63;;;0.60;;
47657;SDS011;33958;48.404;10.598;2022-07-12T08:19:22;0.65;;;0.40;;
47657;SDS011;33958;48.404;10.598;2022-07-12T08:21:49;0.40;;;0.40;;
47657;SDS011;33958;48.404;10.598;2022-07-12T08:24:16;1.58;;;0.50;;
47657;SDS011;33958;48.404;10.598;2022-07-12T08:26:43;0.52;;;0.50;;
47657;SDS011;33958;48.404;10.598;2022-07-12T08:29:10;0.52;;;0.47;;
47657;SDS011;33958;48.404;10.598;2022-07-12T08:31:37;2.42;;;0.60;;
47657;SDS011;33958;48.404;10.598;2022-07-12T08:34:03;0.55;;;0.40;;
47657;SDS011;33958;48.404;10.598;2022-07-12T08:36:31;0.73;;;0.57;;
47657;SDS011;33958;48.404;10.598;2022-07-12T08:39:02;2.72;;;0.70;;
47657;SDS011;33958;48.404;10.598;2022-07-12T08:41:31;0.40;;;0.40;;
47657;SDS011;33958;48.404;10.598;2022-07-12T08:43:58;1.00;;;0.70;;
47657;SDS011;33958;48.404;10.598;2022-07-12T08:46:25;0.60;;;0.52;;
47657;SDS011;33958;48.404;10.598;2022-07-12T08:48:52;1.50;;;0.70;;
47657;SDS011;33958;48.404;10.598;2022-07-12T08:51:21;1.88;;;0.70;;
47657;SDS011;33958;48.404;10.598;2022-07-12T08:54:03;0.75;;;0.50;;
47657;SDS011;33958;48.404;10.598;2022-07-12T08:56:34;1.98;;;0.85;;
47657;SDS011;33958;48.404;10.598;2022-07-12T08:59:14;0.68;;;0.50;;
47657;SDS011;33958;48.404;10.598;2022-07-12T09:01:53;0.90;;;0.60;;
47657;SDS011;33958;48.404;10.598;2022-07-12T09:04:22;0.73;;;0.60;;
47657;SDS011;33958;48.404;10.598;2022-07-12T09:06:53;0.85;;;0.50;;
47657;SDS011;33958;48.404;10.598;2022-07-12T09:09:26;1.35;;;0.68;;
47657;SDS011;33958;48.404;10.598;2022-07-12T09:11:54;1.88;;;0.70;;
47657;SDS011;33958;48.404;10.598;2022-07-12T09:14:24;3.53;;;0.60;;
47657;SDS011;33958;48.404;10.598;2022-07-12T09:17:07;1.67;;;0.68;;
47657;SDS011;33958;48.404;10.598;2022-07-12T09:19:39;1.58;;;0.77;;
47657;SDS011;33958;48.404;10.598;2022-07-12T09:22:13;1.10;;;0.70;;
47657;SDS011;33958;48.404;10.598;2022-07-12T09:24:43;0.85;;;0.60;;
47657;SDS011;33958;48.404;10.598;2022-07-12T09:27:11;1.20;;;0.70;;
47657;SDS011;33958;48.404;10.598;2022-07-12T09:29:49;1.00;;;0.88;;
47657;SDS011;33958;48.404;10.598;2022-07-12T09:32:24;2.97;;;1.00;;
47657;SDS011;33958;48.404;10.598;2022-07-12T09:35:10;0.90;;;0.60;;
47657;SDS011;33958;48.404;10.598;2022-07-12T09:37:57;1.63;;;0.70;;
47657;SDS011;33958;48.404;10.598;2022-07-12T09:40:34;1.63;;;0.60;;
47657;SDS011;33958;48.404;10.598;2022-07-12T09:43:03;0.90;;;0.55;;
47657;SDS011;33958;48.404;10.598;2022-07-12T09:45:31;2.22;;;0.60;;
47657;SDS011;33958;48.404;10.598;2022-07-12T09:47:59;0.70;;;0.60;;
47657;SDS011;33958;48.404;10.598;2022-07-12T09:50:26;0.98;;;0.63;;
47657;SDS011;33958;48.404;10.598;2022-07-12T09:52:57;2.13;;;0.77;;
47657;SDS011;33958;48.404;10.598;2022-07-12T09:55:26;1.10;;;0.65;;
47657;SDS011;33958;48.404;10.598;2022-07-12T09:57:58;1.27;;;0.60;;
47657;SDS011;33958;48.404;10.598;2022-07-12T10:00:27;1.10;;;0.60;;
47657;SDS011;33958;48.404;10.598;2022-07-12T10:02:55;0.82;;;0.60;;
47657;SDS011;33958;48.404;10.598;2022-07-12T10:05:25;1.40;;;0.70;;
47657;SDS011;33958;48.404;10.598;2022-07-12T10:07:53;1.95;;;0.65;;
47657;SDS011;33958;48.404;10.598;2022-07-12T10:10:21;0.75;;;0.60;;
47657;SDS011;33958;48.404;10.598;2022-07-12T10:12:49;1.50;;;0.70;;
47657;SDS011;33958;48.404;10.598;2022-07-12T10:15:19;0.52;;;0.50;;
47657;SDS011;33958;48.404;10.598;2022-07-12T10:20:22;1.00;;;0.52;;
47657;SDS011;33958;48.404;10.598;2022-07-12T10:22:56;1.23;;;0.45;;
47657;SDS011;33958;48.404;10.598;2022-07-12T10:25:54;0.60;;;0.30;;
47657;SDS011;33958;48.404;10.598;2022-07-12T10:28:22;0.60;;;0.50;;
47657;SDS011;33958;48.404;10.598;2022-07-12T10:30:49;1.80;;;0.50;;
47657;SDS011;33958;48.404;10.598;2022-07-12T10:33:18;0.30;;;0.30;;
47657;SDS011;33958;48.404;10.598;2022-07-12T10:36:02;1.13;;;0.45;;
47657;SDS011;33958;48.404;10.598;2022-07-12T10:38:39;1.55;;;0.40;;
47657;SDS011;33958;48.404;10.598;2022-07-12T10:41:16;0.40;;;0.40;;
47657;SDS011;33958;48.404;10.598;2022-07-12T10:44:02;1.08;;;0.50;;
47657;SDS011;33958;48.404;10.598;2022-07-12T10:46:33;0.50;;;0.40;;
47657;SDS011;33958;48.404;10.598;2022-07-12T10:57:04;0.73;;;0.40;;
47657;SDS011;33958;48.404;10.598;2022-07-12T10:59:35;1.60;;;0.50;;
47657;SDS011;33958;48.404;10.598;2022-07-12T11:02:03;1.27;;;0.30;;
47657;SDS011;33958;48.404;10.598;2022-07-12T11:04:47;2.25;;;0.50;;
47657;SDS011;33958;48.404;10.598;2022-07-12T11:07:17;0.40;;;0.40;;
47657;SDS011;33958;48.404;10.598;2022-07-12T11:09:44;1.35;;;0.30;;
47657;SDS011;33958;48.404;10.598;2022-07-12T11:12:13;0.60;;;0.38;;
47657;SDS011;33958;48.404;10.598;2022-07-12T11:14:44;0.40;;;0.40;;
47657;SDS011;33958;48.404;10.598;2022-07-12T11:17:12;0.70;;;0.45;;
47657;SDS011;33958;48.404;10.598;2022-07-12T11:19:39;0.75;;;0.50;;
47657;SDS011;33958;48.404;10.598;2022-07-12T11:22:06;0.73;;;0.38;;
47657;SDS011;33958;48.404;10.598;2022-07-12T11:24:34;0.40;;;0.40;;
47657;SDS011;33958;48.404;10.598;2022-07-12T11:27:03;1.70;;;0.40;;
47657;SDS011;33958;48.404;10.598;2022-07-12T11:29:31;0.63;;;0.50;;
47657;SDS011;33958;48.404;10.598;2022-07-12T11:31:59;1.27;;;0.40;;
47657;SDS011;33958;48.404;10.598;2022-07-12T11:34:36;0.30;;;0.30;;
47657;SDS011;33958;48.404;10.598;2022-07-12T11:37:03;1.25;;;0.30;;
47657;SDS011;33958;48.404;10.598;2022-07-12T11:39:31;1.58;;;0.43;;
47657;SDS011;33958;48.404;10.598;2022-07-12T11:41:58;0.77;;;0.50;;
47657;SDS011;33958;48.404;10.598;2022-07-12T11:47:11;1.60;;;0.45;;
47657;SDS011;33958;48.404;10.598;2022-07-12T11:49:46;0.43;;;0.40;;
47657;SDS011;33958;48.404;10.598;2022-07-12T11:52:15;1.02;;;0.40;;
47657;SDS011;33958;48.404;10.598;2022-07-12T11:54:44;0.55;;;0.40;;
47657;SDS011;33958;48.404;10.598;2022-07-12T11:57:12;0.90;;;0.50;;
47657;SDS011;33958;48.404;10.598;2022-07-12T11:59:40;0.80;;;0.40;;
47657;SDS011;33958;48.404;10.598;2022-07-12T12:02:08;2.47;;;0.40;;
47657;SDS011;33958;48.404;10.598;2022-07-12T12:04:47;1.48;;;0.40;;
47657;SDS011;33958;48.404;10.598;2022-07-12T12:07:15;1.35;;;0.40;;
47657;SDS011;33958;48.404;10.598;2022-07-12T12:10:02;0.80;;;0.30;;
47657;SDS011;33958;48.404;10.598;2022-07-12T12:15:15;1.85;;;0.50;;
47657;SDS011;33958;48.404;10.598;2022-07-12T12:20:26;1.05;;;0.40;;
47657;SDS011;33958;48.404;10.598;2022-07-12T12:25:24;0.65;;;0.38;;
47657;SDS011;33958;48.404;10.598;2022-07-12T12:30:53;0.47;;;0.35;;
47657;SDS011;33958;48.404;10.598;2022-07-12T12:33:32;0.45;;;0.40;;
47657;SDS011;33958;48.404;10.598;2022-07-12T12:39:03;0.73;;;0.40;;
47657;SDS011;33958;48.404;10.598;2022-07-12T12:41:40;0.68;;;0.40;;
47657;SDS011;33958;48.404;10.598;2022-07-12T12:44:11;0.35;;;0.30;;
47657;SDS011;33958;48.404;10.598;2022-07-12T12:49:14;2.92;;;0.40;;
47657;SDS011;33958;48.404;10.598;2022-07-12T12:51:57;1.40;;;0.40;;
47657;SDS011;33958;48.404;10.598;2022-07-12T12:54:45;0.85;;;0.40;;
47657;SDS011;33958;48.404;10.598;2022-07-12T12:57:12;0.50;;;0.40;;
47657;SDS011;33958;48.404;10.598;2022-07-12T12:59:39;0.20;;;0.20;;
47657;SDS011;33958;48.404;10.598;2022-07-12T13:02:06;0.30;;;0.30;;
47657;SDS011;33958;48.404;10.598;2022-07-12T13:04:35;0.50;;;0.30;;
47657;SDS011;33958;48.404;10.598;2022-07-12T13:07:03;0.63;;;0.20;;
47657;SDS011;33958;48.404;10.598;2022-07-12T13:09:38;0.80;;;0.40;;
47657;SDS011;33958;48.404;10.598;2022-07-12T13:12:05;0.65;;;0.40;;
47657;SDS011;33958;48.404;10.598;2022-07-12T13:14:33;0.30;;;0.30;;
47657;SDS011;33958;48.404;10.598;2022-07-12T13:17:01;0.52;;;0.40;;
47657;SDS011;33958;48.404;10.598;2022-07-12T13:19:28;0.70;;;0.43;;
47657;SDS011;33958;48.404;10.598;2022-07-12T13:21:57;0.82;;;0.40;;
47657;SDS011;33958;48.404;10.598;2022-07-12T13:24:24;0.50;;;0.38;;
47657;SDS011;33958;48.404;10.598;2022-07-12T13:26:51;2.17;;;0.40;;
47657;SDS011;33958;48.404;10.598;2022-07-12T13:29:18;0.60;;;0.30;;
47657;SDS011;33958;48.404;10.598;2022-07-12T13:31:45;1.23;;;0.77;;
47657;SDS011;33958;48.404;10.598;2022-07-12T13:34:18;0.65;;;0.30;;
47657;SDS011;33958;48.404;10.598;2022-07-12T13:36:46;1.05;;;0.43;;
47657;SDS011;33958;48.404;10.598;2022-07-12T13:39:13;2.35;;;0.40;;
47657;SDS011;33958;48.404;10.598;2022-07-12T13:41:58;1.80;;;0.40;;
47657;SDS011;33958;48.404;10.598;2022-07-12T13:44:25;0.52;;;0.40;;
47657;SDS011;33958;48.404;10.598;2022-07-12T13:46:52;2.20;;;0.40;;
47657;SDS011;33958;48.404;10.598;2022-07-12T13:49:19;0.40;;;0.40;;
47657;SDS011;33958;48.404;10.598;2022-07-12T13:51:45;1.70;;;0.30;;
47657;SDS011;33958;48.404;10.598;2022-07-12T13:54:12;1.75;;;0.52;;
47657;SDS011;33958;48.404;10.598;2022-07-12T13:56:39;0.82;;;0.40;;
47657;SDS011;33958;48.404;10.598;2022-07-12T13:59:06;2.38;;;0.60;;
47657;SDS011;33958;48.404;10.598;2022-07-12T14:01:33;2.22;;;0.57;;
47657;SDS011;33958;48.404;10.598;2022-07-12T14:04:00;1.10;;;0.40;;
47657;SDS011;33958;48.404;10.598;2022-07-12T14:06:28;0.63;;;0.30;;
47657;SDS011;33958;48.404;10.598;2022-07-12T14:08:56;0.30;;;0.30;;
47657;SDS011;33958;48.404;10.598;2022-07-12T14:11:24;0.30;;;0.30;;
47657;SDS011;33958;48.404;10.598;2022-07-12T14:13:51;0.55;;;0.40;;
47657;SDS011;33958;48.404;10.598;2022-07-12T14:16:21;0.98;;;0.50;;
47657;SDS011;33958;48.404;10.598;2022-07-12T14:18:48;2.08;;;0.43;;
47657;SDS011;33958;48.404;10.598;2022-07-12T14:21:15;0.63;;;0.52;;
47657;SDS011;33958;48.404;10.598;2022-07-12T14:23:42;0.30;;;0.30;;
47657;SDS011;33958;48.404;10.598;2022-07-12T14:26:08;0.75;;;0.43;;
47657;SDS011;33958;48.404;10.598;2022-07-12T14:28:35;2.20;;;0.43;;
47657;SDS011;33958;48.404;10.598;2022-07-12T14:31:03;0.65;;;0.40;;
47657;SDS011;33958;48.404;10.598;2022-07-12T14:33:31;2.10;;;0.53;;
47657;SDS011;33958;48.404;10.598;2022-07-12T14:35:58;0.40;;;0.40;;
47657;SDS011;33958;48.404;10.598;2022-07-12T14:38:27;2.33;;;0.40;;
47657;SDS011;33958;48.404;10.598;2022-07-12T14:40:54;0.40;;;0.40;;
47657;SDS011;33958;48.404;10.598;2022-07-12T14:43:22;0.82;;;0.40;;
47657;SDS011;33958;48.404;10.598;2022-07-12T14:45:48;1.02;;;0.40;;
47657;SDS011;33958;48.404;10.598;2022-07-12T14:48:15;0.40;;;0.25;;
47657;SDS011;33958;48.404;10.598;2022-07-12T14:50:42;1.77;;;0.63;;
47657;SDS011;33958;48.404;10.598;2022-07-12T14:53:13;0.57;;;0.43;;
47657;SDS011;33958;48.404;10.598;2022-07-12T14:55:40;0.38;;;0.38;;
47657;SDS011;33958;48.404;10.598;2022-07-12T14:58:07;0.32;;;0.32;;
47657;SDS011;33958;48.404;10.598;2022-07-12T15:00:35;2.03;;;0.50;;
47657;SDS011;33958;48.404;10.598;2022-07-12T15:03:02;0.75;;;0.40;;
47657;SDS011;33958;48.404;10.598;2022-07-12T15:05:30;0.38;;;0.38;;
47657;SDS011;33958;48.404;10.598;2022-07-12T15:07:58;0.65;;;0.40;;
47657;SDS011;33958;48.404;10.598;2022-07-12T15:10:25;0.73;;;0.60;;
47657;SDS011;33958;48.404;10.598;2022-07-12T15:12:52;0.65;;;0.50;;